Time,TemperatureF,DewpointF,PressureIn,WindDirection,WindDirectionDegrees,WindSpeedMPH,WindSpeedGustMPH,Humidity,HourlyPrecipIn,Conditions,Clouds,dailyrainin,SoftwareType,DateUTC
2013-04-29 00:02:00,42.0,23.0,29.82,NW,308,0.0,0.0,46,0.00,,,-99.99,,2013-04-29 06:02:00,
2013-04-29 00:21:00,41.0,23.0,29.82,NW,308,0.0,0.0,48,0.00,,,-99.99,,2013-04-29 06:21:00,
2013-04-29 00:32:00,41.0,23.0,29.83,NW,308,0.0,0.0,49,0.00,,,-99.99,,2013-04-29 06:32:00,
2013-04-29 00:51:00,40.0,23.0,29.83,NW,308,0.0,0.0,51,0.00,,,-99.99,,2013-04-29 06:51:00,
2013-04-29 01:01:00,39.0,23.0,29.82,NW,308,0.0,3.0,53,0.00,,,-99.99,,2013-04-29 07:01:00,
2013-04-29 01:21:00,38.0,24.0,29.83,NW,308,0.0,2.0,57,0.00,,,-99.99,,2013-04-29 07:21:00,
2013-04-29 01:31:00,37.0,24.0,29.83,NW,308,0.0,1.0,59,0.00,,,-99.99,,2013-04-29 07:31:00,
2013-04-29 01:52:00,37.0,24.0,29.83,NW,308,0.0,3.0,59,0.00,,,-99.99,,2013-04-29 07:52:00,
2013-04-29 02:02:00,36.0,23.0,29.83,NW,308,0.0,0.0,59,0.00,,,-99.99,,2013-04-29 08:02:00,
2013-04-29 02:21:00,36.0,23.0,29.82,NW,308,0.0,1.0,60,0.00,,,-99.99,,2013-04-29 08:21:00,
2013-04-29 02:31:00,35.0,23.0,29.82,NW,308,0.0,0.0,60,0.00,,,-99.99,,2013-04-29 08:31:00,
2013-04-29 02:51:00,34.0,22.0,29.82,NW,308,0.0,0.0,61,0.00,,,-99.99,,2013-04-29 08:51:00,
2013-04-29 03:01:00,33.0,21.0,29.82,NW,308,2.0,3.0,62,0.00,,,-99.99,,2013-04-29 09:01:00,
2013-04-29 03:21:00,33.0,22.0,29.82,NW,308,0.0,1.0,64,0.00,,,-99.99,,2013-04-29 09:21:00,
2013-04-29 03:32:00,33.0,23.0,29.82,NW,308,0.0,0.0,65,0.00,,,-99.99,,2013-04-29 09:32:00,
2013-04-29 03:53:00,32.0,22.0,29.82,NW,308,0.0,0.0,66,0.00,,,-99.99,,2013-04-29 09:53:00,
2013-04-29 04:02:00,32.0,22.0,29.82,NW,308,0.0,0.0,66,0.00,,,-99.99,,2013-04-29 10:02:00,
2013-04-29 04:22:00,31.0,21.0,29.82,NW,308,0.0,0.0,67,0.00,,,-99.99,,2013-04-29 10:22:00,
2013-04-29 04:32:00,31.0,22.0,29.82,NW,308,0.0,0.0,68,0.00,,,-99.99,,2013-04-29 10:32:00,
2013-04-29 04:52:00,31.0,22.0,29.82,NW,308,0.0,0.0,69,0.00,,,-99.99,,2013-04-29 10:52:00,
2013-04-29 05:02:00,31.0,22.0,29.82,NW,308,0.0,1.0,70,0.00,,,-99.99,,2013-04-29 11:02:00,
2013-04-29 05:21:00,30.0,22.0,29.81,NW,308,0.0,2.0,71,0.00,,,-99.99,,2013-04-29 11:21:00,
2013-04-29 05:31:00,30.0,22.0,29.82,NW,308,0.0,2.0,72,0.00,,,-99.99,,2013-04-29 11:31:00,
2013-04-29 05:52:00,29.0,21.0,29.82,NW,308,0.0,0.0,72,0.00,,,-99.99,,2013-04-29 11:52:00,
2013-04-29 06:01:00,29.0,22.0,29.82,NW,308,0.0,2.0,74,0.00,,,-99.99,,2013-04-29 12:01:00,
2013-04-29 06:21:00,29.0,21.0,29.82,NW,308,0.0,0.0,72,0.00,,,-99.99,,2013-04-29 12:21:00,
2013-04-29 06:31:00,29.0,22.0,29.82,NW,308,1.0,2.0,74,0.00,,,-99.99,,2013-04-29 12:31:00,
2013-04-29 06:51:00,28.0,21.0,29.82,NW,308,0.0,1.0,75,0.00,,,-99.99,,2013-04-29 12:51:00,
2013-04-29 07:01:00,28.0,21.0,29.82,NW,308,0.0,0.0,76,0.00,,,-99.99,,2013-04-29 13:01:00,
2013-04-29 07:21:00,29.0,22.0,29.81,WSW,253,0.0,0.0,76,0.00,,,-99.99,,2013-04-29 13:21:00,
2013-04-29 07:31:00,31.0,24.0,29.81,East,80,0.0,3.0,74,0.00,,,-99.99,,2013-04-29 13:31:00,
2013-04-29 07:52:00,33.0,25.0,29.81,East,80,0.0,0.0,72,0.00,,,-99.99,,2013-04-29 13:52:00,
2013-04-29 08:01:00,36.0,26.0,29.80,East,80,0.0,2.0,66,0.00,,,-99.99,,2013-04-29 14:01:00,
2013-04-29 08:11:00,36.0,26.0,29.80,East,80,0.0,2.0,66,0.00,,,-99.99,,2013-04-29 14:11:00,
2013-04-29 08:21:00,38.0,25.0,29.80,ENE,70,1.0,3.0,59,0.00,,,-99.99,,2013-04-29 14:21:00,
2013-04-29 08:31:00,41.0,26.0,29.79,ENE,70,0.0,2.0,55,0.00,,,-99.99,,2013-04-29 14:31:00,
2013-04-29 08:42:00,41.0,26.0,29.79,ENE,70,0.0,2.0,55,0.00,,,-99.99,,2013-04-29 14:42:00,
2013-04-29 08:51:00,44.0,26.0,29.79,ENE,70,0.0,3.0,49,0.00,,,-99.99,,2013-04-29 14:51:00,
2013-04-29 09:01:00,47.0,27.0,29.78,SE,126,2.0,4.0,46,0.00,,,-99.99,,2013-04-29 15:01:00,
2013-04-29 09:12:00,47.0,27.0,29.78,SE,126,2.0,4.0,46,0.00,,,-99.99,,2013-04-29 15:12:00,
2013-04-29 09:21:00,50.0,27.0,29.78,SE,126,0.0,4.0,41,0.00,,,-99.99,,2013-04-29 15:21:00,
2013-04-29 09:33:00,54.0,28.0,29.77,SE,126,0.0,4.0,36,0.00,,,-99.99,,2013-04-29 15:33:00,
2013-04-29 09:42:00,54.0,28.0,29.77,SE,126,0.0,4.0,36,0.00,,,-99.99,,2013-04-29 15:42:00,
2013-04-29 09:52:00,57.0,26.0,29.76,ESE,117,0.0,4.0,30,0.00,,,-99.99,,2013-04-29 15:52:00,
2013-04-29 10:02:00,60.0,28.0,29.76,ESE,119,2.0,5.0,29,0.00,,,-99.99,,2013-04-29 16:02:00,
2013-04-29 10:12:00,60.0,28.0,29.76,ESE,119,2.0,5.0,29,0.00,,,-99.99,,2013-04-29 16:12:00,
2013-04-29 10:23:00,63.0,28.0,29.75,SE,133,5.0,8.0,26,0.00,,,-99.99,,2013-04-29 16:23:00,
2013-04-29 10:32:00,65.0,27.0,29.74,SSE,165,6.0,8.0,24,0.00,,,-99.99,,2013-04-29 16:32:00,
2013-04-29 10:42:00,65.0,27.0,29.74,SSE,165,6.0,8.0,24,0.00,,,-99.99,,2013-04-29 16:42:00,
2013-04-29 10:52:00,67.0,26.0,29.73,ESE,113,4.0,9.0,21,0.00,,,-99.99,,2013-04-29 16:52:00,
2013-04-29 11:02:00,68.0,25.0,29.72,WSW,246,2.0,13.0,20,0.00,,,-99.99,,2013-04-29 17:02:00,
2013-04-29 11:11:00,68.0,25.0,29.72,WSW,246,2.0,13.0,20,0.00,,,-99.99,,2013-04-29 17:11:00,
2013-04-29 11:22:00,70.0,25.0,29.72,SSW,195,1.0,12.0,18,0.00,,,-99.99,,2013-04-29 17:22:00,
2013-04-29 11:31:00,71.0,25.0,29.71,WSW,245,7.0,17.0,18,0.00,,,-99.99,,2013-04-29 17:31:00,
2013-04-29 11:42:00,71.0,25.0,29.71,WSW,245,7.0,17.0,18,0.00,,,-99.99,,2013-04-29 17:42:00,
2013-04-29 11:52:00,69.0,24.0,29.70,South,180,2.0,21.0,18,0.00,,,-99.99,,2013-04-29 17:52:00,
2013-04-29 12:01:00,70.0,25.0,29.70,SE,137,5.0,16.0,18,0.00,,,-99.99,,2013-04-29 18:01:00,
2013-04-29 12:12:00,70.0,25.0,29.70,SE,137,5.0,16.0,18,0.00,,,-99.99,,2013-04-29 18:12:00,
2013-04-29 12:22:00,72.0,25.0,29.70,West,271,8.0,15.0,17,0.00,,,-99.99,,2013-04-29 18:22:00,
2013-04-29 12:31:00,71.0,24.0,29.69,WSW,248,14.0,22.0,17,0.00,,,-99.99,,2013-04-29 18:31:00,
2013-04-29 12:41:00,71.0,24.0,29.69,WSW,248,14.0,22.0,17,0.00,,,-99.99,,2013-04-29 18:41:00,
2013-04-29 12:52:00,71.0,23.0,29.68,West,259,11.0,24.0,16,0.00,,,-99.99,,2013-04-29 18:52:00,
2013-04-29 13:01:00,70.0,22.0,29.68,WSW,238,8.0,23.0,16,0.00,,,-99.99,,2013-04-29 19:01:00,
2013-04-29 13:11:00,70.0,22.0,29.68,WSW,238,8.0,23.0,16,0.00,,,-99.99,,2013-04-29 19:11:00,
2013-04-29 13:21:00,71.0,23.0,29.67,SSW,213,4.0,25.0,16,0.00,,,-99.99,,2013-04-29 19:21:00,
2013-04-29 13:31:00,72.0,22.0,29.66,WSW,250,4.0,26.0,15,0.00,,,-99.99,,2013-04-29 19:31:00,
2013-04-29 13:41:00,72.0,22.0,29.66,WSW,250,4.0,26.0,15,0.00,,,-99.99,,2013-04-29 19:41:00,
2013-04-29 13:51:00,73.0,23.0,29.65,WSW,250,9.0,22.0,15,0.00,,,-99.99,,2013-04-29 19:51:00,
2013-04-29 14:01:00,73.0,24.0,29.64,WSW,247,17.0,20.0,16,0.00,,,-99.99,,2013-04-29 20:01:00,
2013-04-29 14:11:00,73.0,24.0,29.64,WSW,247,17.0,20.0,16,0.00,,,-99.99,,2013-04-29 20:11:00,
2013-04-29 14:21:00,73.0,23.0,29.64,WSW,241,4.0,24.0,15,0.00,,,-99.99,,2013-04-29 20:21:00,
2013-04-29 14:32:00,73.0,23.0,29.64,WSW,238,14.0,29.0,15,0.00,,,-99.99,,2013-04-29 20:32:00,
2013-04-29 14:42:00,73.0,23.0,29.64,WSW,238,14.0,29.0,15,0.00,,,-99.99,,2013-04-29 20:42:00,
2013-04-29 14:52:00,73.0,23.0,29.63,WSW,244,19.0,27.0,15,0.00,,,-99.99,,2013-04-29 20:52:00,
2013-04-29 15:01:00,73.0,23.0,29.62,SSW,194,5.0,24.0,15,0.00,,,-99.99,,2013-04-29 21:01:00,
2013-04-29 15:11:00,73.0,23.0,29.62,SSW,194,5.0,24.0,15,0.00,,,-99.99,,2013-04-29 21:11:00,
2013-04-29 15:21:00,73.0,21.0,29.61,WSW,244,13.0,25.0,14,0.00,,,-99.99,,2013-04-29 21:21:00,
2013-04-29 15:32:00,74.0,22.0,29.61,WSW,239,15.0,21.0,14,0.00,,,-99.99,,2013-04-29 21:32:00,
2013-04-29 15:42:00,74.0,22.0,29.61,WSW,239,15.0,21.0,14,0.00,,,-99.99,,2013-04-29 21:42:00,
2013-04-29 15:53:00,72.0,22.0,29.61,SW,229,10.0,22.0,15,0.00,,,-99.99,,2013-04-29 21:53:00,
2013-04-29 16:02:00,73.0,21.0,29.60,WSW,254,12.0,24.0,14,0.00,,,-99.99,,2013-04-29 22:02:00,
2013-04-29 16:12:00,73.0,21.0,29.60,WSW,254,12.0,24.0,14,0.00,,,-99.99,,2013-04-29 22:12:00,
2013-04-29 16:23:00,74.0,23.0,29.59,West,271,10.0,20.0,15,0.00,,,-99.99,,2013-04-29 22:23:00,
2013-04-29 16:32:00,74.0,22.0,29.59,WSW,250,19.0,24.0,14,0.00,,,-99.99,,2013-04-29 22:32:00,
2013-04-29 16:42:00,74.0,22.0,29.59,WSW,250,19.0,24.0,14,0.00,,,-99.99,,2013-04-29 22:42:00,
2013-04-29 16:52:00,74.0,22.0,29.59,WSW,254,19.0,27.0,14,0.00,,,-99.99,,2013-04-29 22:52:00,
2013-04-29 17:02:00,73.0,23.0,29.58,WNW,300,12.0,24.0,15,0.00,,,-99.99,,2013-04-29 23:02:00,
2013-04-29 17:11:00,73.0,23.0,29.58,WNW,300,12.0,24.0,15,0.00,,,-99.99,,2013-04-29 23:11:00,
2013-04-29 17:22:00,72.0,22.0,29.58,WSW,248,11.0,16.0,15,0.00,,,-99.99,,2013-04-29 23:22:00,
2013-04-29 17:31:00,73.0,19.0,29.58,WNW,287,8.0,27.0,13,0.00,,,-99.99,,2013-04-29 23:31:00,
2013-04-29 17:41:00,73.0,19.0,29.58,WNW,287,8.0,27.0,13,0.00,,,-99.99,,2013-04-29 23:41:00,
2013-04-29 17:52:00,71.0,23.0,29.59,West,279,14.0,19.0,16,0.00,,,-99.99,,2013-04-29 23:52:00,
2013-04-29 18:01:00,70.0,22.0,29.59,WSW,246,13.0,24.0,16,0.00,,,-99.99,,2013-04-30 00:01:00,
2013-04-29 18:11:00,70.0,22.0,29.59,WSW,246,13.0,24.0,16,0.00,,,-99.99,,2013-04-30 00:11:00,
2013-04-29 18:21:00,71.0,21.0,29.58,SW,236,10.0,21.0,15,0.00,,,-99.99,,2013-04-30 00:21:00,
2013-04-29 18:31:00,71.0,23.0,29.58,West,261,12.0,20.0,16,0.00,,,-99.99,,2013-04-30 00:31:00,
2013-04-29 18:41:00,71.0,23.0,29.58,West,261,12.0,20.0,16,0.00,,,-99.99,,2013-04-30 00:41:00,
2013-04-29 18:52:00,69.0,22.0,29.58,West,265,6.0,12.0,17,0.00,,,-99.99,,2013-04-30 00:52:00,
2013-04-29 19:01:00,68.0,23.0,29.58,West,277,8.0,16.0,18,0.00,,,-99.99,,2013-04-30 01:01:00,
2013-04-29 19:11:00,68.0,23.0,29.58,West,277,8.0,16.0,18,0.00,,,-99.99,,2013-04-30 01:11:00,
2013-04-29 19:21:00,69.0,21.0,29.57,South,188,10.0,19.0,16,0.00,,,-99.99,,2013-04-30 01:21:00,
2013-04-29 19:31:00,69.0,19.0,29.58,SSW,203,16.0,21.0,15,0.00,,,-99.99,,2013-04-30 01:31:00,
2013-04-29 19:41:00,69.0,19.0,29.58,SSW,203,16.0,21.0,15,0.00,,,-99.99,,2013-04-30 01:41:00,
2013-04-29 19:51:00,68.0,20.0,29.58,WSW,254,6.0,21.0,16,0.00,,,-99.99,,2013-04-30 01:51:00,
2013-04-29 20:01:00,67.0,21.0,29.58,West,267,4.0,9.0,17,0.00,,,-99.99,,2013-04-30 02:01:00,
2013-04-29 20:11:00,67.0,21.0,29.58,West,267,4.0,9.0,17,0.00,,,-99.99,,2013-04-30 02:11:00,
2013-04-29 20:21:00,66.0,20.0,29.59,West,267,3.0,5.0,17,0.00,,,-99.99,,2013-04-30 02:21:00,
2013-04-29 20:31:00,64.0,21.0,29.59,West,267,2.0,4.0,19,0.00,,,-99.99,,2013-04-30 02:31:00,
2013-04-29 20:41:00,64.0,21.0,29.59,West,267,2.0,4.0,19,0.00,,,-99.99,,2013-04-30 02:41:00,
2013-04-29 20:51:00,61.0,22.0,29.59,West,275,3.0,5.0,22,0.00,,,-99.99,,2013-04-30 02:51:00,
2013-04-29 21:01:00,60.0,22.0,29.59,West,269,3.0,4.0,23,0.00,,,-99.99,,2013-04-30 03:01:00,
2013-04-29 21:11:00,60.0,22.0,29.59,West,269,3.0,4.0,23,0.00,,,-99.99,,2013-04-30 03:11:00,
2013-04-29 21:32:00,55.0,23.0,29.61,NNW,331,0.0,5.0,29,0.00,,,-99.99,,2013-04-30 03:32:00,
2013-04-29 22:02:00,53.0,25.0,29.62,NNW,331,0.0,2.0,33,0.00,,,-99.99,,2013-04-30 04:02:00,
2013-04-29 22:32:00,49.0,24.0,29.62,NNW,331,0.0,1.0,37,0.00,,,-99.99,,2013-04-30 04:32:00,
2013-04-29 22:52:00,48.0,25.0,29.62,NNW,331,0.0,2.0,40,0.00,,,-99.99,,2013-04-30 04:52:00,
2013-04-29 23:02:00,47.0,25.0,29.62,NNW,331,0.0,0.0,42,0.00,,,-99.99,,2013-04-30 05:02:00,
2013-04-29 23:11:00,47.0,25.0,29.62,NNW,331,0.0,0.0,42,0.00,,,-99.99,,2013-04-30 05:11:00,
2013-04-29 23:21:00,46.0,25.0,29.62,NNW,331,0.0,0.0,44,0.00,,,-99.99,,2013-04-30 05:21:00,
2013-04-29 23:31:00,44.0,24.0,29.62,NNW,331,0.0,0.0,45,0.00,,,-99.99,,2013-04-30 05:31:00,